• Join FlightAware (Why Join?)
  • Login
  • US Flag 
12:01AM EDT


 

Airport Tracker/Info


-or-


 

Live Flight TrackerFlight Track Log ✈ MTN8105 ✈ 18-Jun-2013 ✈ TJSJ / SJU - TAPA / ANU

Flight Track Log - Related Links

Times and Time Zones

All times are in EDT time to prevent confusion due to time zone crossing. See the MTN8105 flight status page for this flight to view local times or setup timezone preferences in your user account.

Time Position Orientation Groundspeed Altitude Reporting Facility
EDT Latitude Longitude Course Direction KTS MPH feet Rate Location/Type
11:37AM 18.4333 -65.9500 90° East 110 127 1,100  Level San Juan Center
11:38AM 18.4333 -65.9167 90° East 100 115 1,700 540 Climbing San Juan Center
11:39AM 18.4500 -65.8833 62° Northeast 100 115 2,200 480 Climbing San Juan Center
11:40AM 18.4500 -65.8500 90° East 110 127 2,700 480 Climbing San Juan Center
11:41AM 18.4500 -65.8167 90° East 110 127 3,200 540 Climbing San Juan Center
11:42AM 18.4500 -65.7833 90° East 120 138 3,800 540 Climbing San Juan Center
11:43AM 18.4500 -65.7500 90° East 120 138 4,300 420 Climbing San Juan Center
11:44AM 18.4500 -65.7167 90° East 100 115 4,700 420 Climbing San Juan Center
11:45AM 18.4667 -65.6833 62° Northeast 120 138 5,200 420 Climbing San Juan Center
11:46AM 18.4333 -65.6500 137° Southeast 120 138 5,600 360 Climbing San Juan Center
11:47AM 18.4167 -65.6333 137° Southeast 110 127 6,000 300 Climbing San Juan Center
11:48AM 18.4000 -65.6000 118° Southeast 110 127 6,300 360 Climbing San Juan Center
11:49AM 18.3833 -65.5667 118° Southeast 130 150 6,800 360 Climbing San Juan Center
11:50AM 18.3500 -65.5500 155° Southeast 110 127 7,100 240 Climbing San Juan Center
11:51AM 18.3333 -65.5167 118° Southeast 120 138 7,400 300 Climbing San Juan Center
11:52AM 18.3167 -65.4833 118° Southeast 130 150 7,700 300 Climbing San Juan Center
11:53AM 18.3000 -65.4667 136° Southeast 110 127 8,100 300 Climbing San Juan Center
11:54AM 18.2833 -65.4333 118° Southeast 130 150 8,400 300 Climbing San Juan Center
11:55AM 18.2500 -65.4000 136° Southeast 120 138 8,800 420 Climbing San Juan Center
11:56AM 18.2333 -65.3833 136° Southeast 120 138 9,300 420 Climbing San Juan Center
11:57AM 18.2167 -65.3500 118° Southeast 130 150 9,700 360 Climbing San Juan Center
11:58AM 18.1833 -65.3167 136° Southeast 130 150 10,100 360 Climbing San Juan Center
11:59AM 18.1667 -65.3000 136° Southeast 130 150 10,500 420 Climbing San Juan Center
12:00PM 18.1500 -65.2667 118° Southeast 130 150 11,000 240 Climbing San Juan Center
12:01PM 18.1167 -65.2333 136° Southeast 140 161 11,000 180 Level San Juan Center
12:02PM 18.0833 -65.2167 155° Southeast 140 161 11,400 420 Climbing San Juan Center
12:03PM 18.0667 -65.1833 118° Southeast 130 150 11,900 480 Climbing San Juan Center
12:04PM 18.0500 -65.1500 118° Southeast 130 150 12,400 540 Climbing San Juan Center
12:05PM 18.0333 -65.1167 118° Southeast 140 161 13,000 240 Climbing San Juan Center
12:06PM 18.0167 -65.0833 118° Southeast 150 173 13,000  Level San Juan Center
12:07PM 18.0000 -65.0500 118° Southeast 140 161 13,000  Level San Juan Center
12:08PM 17.9833 -65.0167 118° Southeast 150 173 13,000  Level San Juan Center
12:09PM 17.9833 -64.9667 90° East 140 161 13,000  Level San Juan Center
12:10PM 17.9667 -64.9333 118° Southeast 140 161 13,000  Level San Juan Center
12:11PM 17.9500 -64.9000 118° Southeast 130 150 13,000  Level San Juan Center
12:12PM 17.9333 -64.8500 109° East 140 161 13,000  Level San Juan Center
12:13PM 17.9167 -64.8167 118° Southeast 130 150 13,000  Level San Juan Center
12:14PM 17.9000 -64.7833 118° Southeast 130 150 13,000  Level San Juan Center
12:15PM 17.8833 -64.7333 109° East 140 161 13,000  Level San Juan Center
12:16PM 17.8833 -64.7000 90° East 140 161 13,000  Level San Juan Center
12:17PM 17.8667 -64.6667 118° Southeast 130 150 13,000  Level San Juan Center
12:18PM 17.8500 -64.6167 109° East 130 150 13,000  Level San Juan Center
12:19PM 17.8333 -64.5833 118° Southeast 150 173 13,000  Level San Juan Center
12:20PM 17.8167 -64.5500 118° Southeast 160 184 13,000  Level San Juan Center
12:21PM 17.8000 -64.5167 118° Southeast 140 161 13,000  Level San Juan Center
12:22PM 17.8000 -64.4667 90° East 150 173 13,000  Level San Juan Center
12:23PM 17.7833 -64.4333 118° Southeast 130 150 13,000  Level San Juan Center
12:24PM 17.7667 -64.3833 109° East 150 173 13,000  Level San Juan Center
12:25PM 17.7500 -64.3500 118° Southeast 130 150 13,000  Level San Juan Center
12:26PM 17.7333 -64.3167 118° Southeast 130 150 13,000  Level San Juan Center
12:27PM 17.7167 -64.2833 118° Southeast 150 173 13,000  Level San Juan Center
12:28PM 17.7000 -64.2333 109° East 150 173 13,000  Level San Juan Center
12:29PM 17.7000 -64.2000 90° East 150 173 13,000  Level San Juan Center
12:30PM 17.6833 -64.1667 118° Southeast 150 173 13,000  Level San Juan Center
12:31PM 17.6667 -64.1167 109° East 140 161 13,000  Level San Juan Center
12:32PM 17.6500 -64.0833 118° Southeast 130 150 13,000  Level San Juan Center
12:33PM 17.6333 -64.0500 118° Southeast 150 173 13,000  Level San Juan Center
12:34PM 17.6167 -64.0167 118° Southeast 140 161 13,000  Level San Juan Center
12:35PM 17.6000 -63.9667 109° East 160 184 13,000  Level San Juan Center
12:36PM 17.6000 -63.9333 90° East 140 161 13,000  Level San Juan Center
12:37PM 17.5833 -63.8833 109° East 140 161 13,000  Level San Juan Center
12:38PM 17.5667 -63.8500 118° Southeast 140 161 13,000  Level San Juan Center
12:39PM 17.5500 -63.8167 118° Southeast 150 173 13,000  Level San Juan Center
12:40PM 17.5333 -63.7833 118° Southeast 150 173 13,000  Level San Juan Center
12:41PM 17.5167 -63.7333 109° East 150 173 13,000  Level San Juan Center
12:42PM 17.5000 -63.7000 118° Southeast 160 184 13,000  Level San Juan Center
12:43PM 17.5000 -63.6500 90° East 150 173 13,000  Level San Juan Center
12:44PM 17.4833 -63.6167 118° Southeast 140 161 13,000  Level San Juan Center
12:45PM 17.4667 -63.5833 118° Southeast 140 161 13,000  Level San Juan Center
12:46PM 17.4667 -63.5333 90° East 140 161 13,000  Level San Juan Center
12:47PM 17.4500 -63.5000 118° Southeast 140 161 13,000  Level San Juan Center
12:48PM 17.4500 -63.4500 90° East 160 184 13,000 -60 Level San Juan Center
12:49PM 17.4333 -63.4167 118° Southeast 140 161 12,900 -60 Descending San Juan Center
12:50PM 17.4333 -63.3833 90° East 110 127 12,900  Level San Juan Center
12:51PM 17.4167 -63.3333 109° East 150 173 12,900  Level San Juan Center
12:52PM 17.4167 -63.3000 90° East 150 173 12,900  Level San Juan Center
12:53PM 17.4000 -63.2500 109° East 150 173 12,900  Level San Juan Center
12:54PM 17.3833 -63.2167 118° Southeast 130 150 12,900  Level San Juan Center
12:55PM 17.3833 -63.1667 90° East 150 173 12,900  Level San Juan Center
12:56PM 17.3833 -63.1333 90° East 140 161 12,900  Level San Juan Center
12:57PM 17.3833 -63.1000 90° East 190 219 12,900  Level San Juan Center
12:58PM 17.3500 -63.0500 125° Southeast 150 173 12,900  Level San Juan Center
12:59PM 17.3500 -63.0167 90° East 140 161 12,900  Level San Juan Center
01:00PM 17.3333 -62.9667 109° East 130 150 13,000 60 Climbing San Juan Center
01:02PM 17.3219 -62.9133 103° East  Level FlightAware Approximate
01:09PM 17.2730 -62.6317 102° East  Level FlightAware Approximate
01:10PM 17.2650 -62.5916 102° East  Level FlightAware Approximate
01:11PM 17.2570 -62.5514 102° East  Level FlightAware Approximate
01:12PM 17.2489 -62.5113 102° East  Level FlightAware Approximate
01:13PM 17.2409 -62.4712 102° East  Level FlightAware Approximate
01:14PM 17.2330 -62.4310 98° East  Level FlightAware Approximate
01:15PM 17.2272 -62.3905 98° East  Level FlightAware Approximate
01:16PM 17.2215 -62.3500 98° East  Level FlightAware Approximate
01:17PM 17.2157 -62.3094 98° East  Level FlightAware Approximate
01:18PM 17.2099 -62.2689 99° East  Level FlightAware Approximate
01:19PM 17.2041 -62.2284 99° East  Level FlightAware Approximate
01:20PM 17.1976 -62.1879 102° East  Level FlightAware Approximate
01:21PM 17.1896 -62.1478 102° East  Level FlightAware Approximate
01:22PM 17.1815 -62.1077 102° East  Level FlightAware Approximate
01:23PM 17.1735 -62.0676 102° East  Level FlightAware Approximate
01:24PM 17.1655 -62.0275 102° East  Level FlightAware Approximate
01:25PM 17.1575 -61.9874 102° East  Level FlightAware Approximate
01:26PM 17.1495 -61.9473 102° East  Level FlightAware Approximate
01:27PM 17.1414 -61.9072 102° East  Level FlightAware Approximate
01:28PM 17.1334 -61.8671 102° East  Level FlightAware Approximate
01:29PM 17.1235 -61.8274 105° East  Level FlightAware Approximate
01:30PM 17.1167 -61.7874 90° East  Level FlightAware Approximate
01:31PM 17.1167 -61.7667 90° East  Level FlightAware Approximate
01:32PM 17.1367 -61.7927 90° East  Level Estimated
01:33PM 17.1367 -61.7927 90° East  Level Estimated
01:34PM 17.1367 -61.7927 90° East  Level Estimated
01:35PM 17.1367 -61.7927 90° East  Level Estimated
01:36PM 17.1367 -61.7927 90° East  Level Estimated